Time;durP1;ratioP1;P1;durP2;ratioP2;P2;SDS_P1;SDS_P2;PMS_P1;PMS_P2;Temp;Humidity;BMP_temperature;BMP_pressure;BME280_temperature;BME280_humidity;BME280_pressure;Samples;Min_cycle;Max_cycle;Signal;HPM_P1;HPM_P2
2021/05/22 00:08:04;;;;;;;5.33;0.47;;;8.30;99.90;;;;;;20994654;28;20340;-76
2021/05/22 00:18:05;;;;;;;1.50;0.57;;;8.20;99.90;;;;;;20993405;28;20436;-76
2021/05/22 00:28:06;;;;;;;0.30;0.30;;;8.30;99.90;;;;;;20993069;28;20098;-76
2021/05/22 00:38:06;;;;;;;2.33;0.40;;;8.20;99.90;;;;;;20974575;28;20522;-76
2021/05/22 00:48:07;;;;;;;0.30;0.30;;;8.30;99.90;;;;;;20973854;28;20041;-76
2021/05/22 00:58:08;;;;;;;3.30;0.60;;;8.40;99.90;;;;;;20991117;28;20028;-75
2021/05/22 01:08:21;;;;;;;0.73;0.37;;;8.40;99.90;;;;;;20972830;28;20036;-75
2021/05/22 01:18:23;;;;;;;7.18;0.40;;;8.20;99.90;;;;;;20972557;28;20517;-76
2021/05/22 01:28:24;;;;;;;0.47;0.40;;;8.30;99.90;;;;;;20995877;28;20028;-76
2021/05/22 01:38:25;;;;;;;1.07;0.20;;;8.30;99.90;;;;;;20989031;28;20088;-76
2021/05/22 01:48:27;;;;;;;0.27;0.27;;;8.30;99.90;;;;;;21005564;28;20036;-76
2021/05/22 01:58:28;;;;;;;;;;;8.40;99.90;;;;;;20973282;28;20131;-75
2021/05/22 02:08:30;;;;;;;1.85;0.32;;;8.20;99.90;;;;;;20971596;28;20455;-75
2021/05/22 02:18:34;;;;;;;0.52;0.30;;;8.30;99.90;;;;;;20987055;28;20033;-75
2021/05/22 02:28:40;;;;;;;2.05;0.40;;;8.40;99.90;;;;;;20984710;28;20498;-75
2021/05/22 02:38:43;;;;;;;2.03;0.55;;;8.30;99.90;;;;;;21001865;28;20020;-75
2021/05/22 02:48:45;;;;;;;1.65;0.63;;;8.20;99.90;;;;;;21001230;28;20033;-76
2021/05/22 02:58:46;;;;;;;;;;;8.10;99.90;;;;;;21001125;28;20083;-75
2021/05/22 03:08:49;;;;;;;3.97;0.70;;;8.00;99.90;;;;;;20999698;28;19919;-75
2021/05/22 03:18:50;;;;;;;4.55;0.55;;;8.00;99.90;;;;;;20998854;28;20111;-75
2021/05/22 03:28:51;;;;;;;0.80;0.50;;;7.90;99.90;;;;;;20963483;28;20482;-75
2021/05/22 03:38:52;;;;;;;1.23;0.83;;;8.00;99.90;;;;;;20997161;28;20111;-76
2021/05/22 03:48:52;;;;;;;2.70;1.03;;;7.90;99.90;;;;;;20996108;28;20483;-74
2021/05/22 03:58:53;;;;;;;6.77;1.03;;;8.00;99.90;;;;;;20995601;28;20032;-75
2021/05/22 04:08:54;;;;;;;2.83;1.30;;;8.00;99.90;;;;;;20994765;28;20029;-75
2021/05/22 04:18:56;;;;;;;1.20;0.97;;;8.00;99.90;;;;;;20994199;28;20024;-74
2021/05/22 04:28:57;;;;;;;5.90;1.25;;;7.90;99.90;;;;;;20977300;28;20086;-75
2021/05/22 04:38:57;;;;;;;6.07;1.17;;;8.00;99.90;;;;;;20981325;28;20028;-75
2021/05/22 04:48:58;;;;;;;6.03;1.80;;;8.00;99.90;;;;;;20977959;28;20054;-75
2021/05/22 04:59:00;;;;;;;3.07;1.40;;;8.00;99.90;;;;;;20991351;28;20123;-75
2021/05/22 05:09:03;;;;;;;10.45;1.83;;;8.10;99.90;;;;;;20989936;28;20039;-75
2021/05/22 05:19:04;;;;;;;4.88;2.05;;;8.30;99.90;;;;;;20972381;28;20028;-76
2021/05/22 05:29:05;;;;;;;7.40;1.80;;;8.50;99.90;;;;;;20971770;28;20044;-74
2021/05/22 05:39:07;;;;;;;3.37;1.60;;;8.80;99.90;;;;;;20988068;28;20589;-75
2021/05/22 05:49:08;;;;;;;2.65;1.17;;;9.30;99.90;;;;;;20989522;28;20029;-74
2021/05/22 05:59:08;;;;;;;8.10;1.37;;;9.70;99.90;;;;;;20989249;28;20078;-75
2021/05/22 06:09:09;;;;;;;13.90;1.93;;;9.90;99.90;;;;;;20988623;28;20048;-75
2021/05/22 06:19:10;;;;;;;5.20;1.77;;;10.20;99.90;;;;;;21000933;28;20071;-76
2021/05/22 06:29:13;;;;;;;6.97;1.57;;;10.60;99.90;;;;;;21002861;28;20033;-75
2021/05/22 06:39:14;;;;;;;2.97;1.20;;;10.80;99.90;;;;;;20984161;28;20035;-75
2021/05/22 06:49:16;;;;;;;4.77;1.40;;;11.30;99.90;;;;;;21002868;28;20025;-75
2021/05/22 06:59:17;;;;;;;12.38;1.60;;;11.60;99.90;;;;;;20984665;28;20037;-73
2021/05/22 07:09:18;;;;;;;4.80;1.57;;;11.80;99.90;;;;;;20999924;28;20398;-76
2021/05/22 07:19:19;;;;;;;6.50;1.17;;;12.20;99.90;;;;;;20999125;28;20063;-76
2021/05/22 07:29:20;;;;;;;7.33;0.80;;;12.10;99.90;;;;;;20974123;28;20162;-74
2021/05/22 07:39:20;;;;;;;6.13;1.20;;;11.90;99.90;;;;;;20978377;28;20041;-75
2021/05/22 07:49:21;;;;;;;3.53;1.20;;;12.50;99.90;;;;;;21019062;28;20037;-76
2021/05/22 07:59:22;;;;;;;9.87;1.10;;;13.00;99.90;;;;;;21038240;22;20044;-77
2021/05/22 08:09:23;;;;;;;3.70;0.80;;;12.10;99.90;;;;;;21062078;28;20043;-76
2021/05/22 08:19:24;;;;;;;5.03;1.10;;;13.10;99.90;;;;;;21078786;28;20038;-76
2021/05/22 08:29:25;;;;;;;5.67;1.30;;;13.60;99.90;;;;;;21141027;28;20127;-77
2021/05/22 08:39:26;;;;;;;6.77;0.80;;;14.20;99.90;;;;;;21068220;28;20106;-77
2021/05/22 08:49:40;;;;;;;7.25;0.90;;;14.50;99.90;;;;;;21057402;28;20031;-77
2021/05/22 08:59:45;;;;;;;7.68;1.52;;;14.60;99.90;;;;;;21056336;28;20052;-76
2021/05/22 09:09:46;;;;;;;4.93;0.98;;;14.10;99.90;;;;;;21055976;28;20024;-77
2021/05/22 09:19:46;;;;;;;10.20;1.17;;;15.10;99.90;;;;;;21035885;28;20039;-76
2021/05/22 09:29:49;;;;;;;5.17;0.70;;;15.00;99.90;;;;;;21052941;28;20081;-77
2021/05/22 09:39:52;;;;;;;3.13;0.50;;;15.40;99.90;;;;;;21055459;28;20032;-76
2021/05/22 09:49:53;;;;;;;1.33;0.40;;;15.70;99.90;;;;;;21060461;28;20161;-75
2021/05/22 10:00:15;;;;;;;4.18;0.80;;;15.80;99.90;;;;;;21068755;28;20123;-76
2021/05/22 10:10:17;;;;;;;3.97;0.57;;;16.60;99.90;;;;;;21068714;28;20035;-76
2021/05/22 10:20:18;;;;;;;4.82;0.70;;;16.90;99.90;;;;;;21013610;28;20028;-76
2021/05/22 10:30:20;;;;;;;5.03;0.68;;;16.60;99.90;;;;;;20990647;28;20738;-75
2021/05/22 10:40:44;;;;;;;3.67;0.60;;;16.90;99.90;;;;;;20981094;28;20554;-76
2021/05/22 10:50:47;;;;;;;1.52;0.43;;;17.40;99.90;;;;;;20980565;28;20817;-76
2021/05/22 11:00:48;;;;;;;2.88;0.60;;;17.90;99.90;;;;;;20977997;28;20072;-76
2021/05/22 11:10:59;;;;;;;3.55;0.80;;;17.50;99.90;;;;;;20980477;28;20826;-76
2021/05/22 11:21:26;;;;;;;3.05;0.90;;;17.70;99.90;;;;;;21041242;28;20498;-75
2021/05/22 11:31:33;;;;;;;10.40;1.20;;;18.40;99.90;;;;;;21051476;28;20835;-76
2021/05/22 11:41:34;;;;;;;5.18;0.68;;;18.50;99.90;;;;;;21059508;28;20501;-74
2021/05/22 11:51:38;;;;;;;5.27;0.60;;;18.70;99.90;;;;;;21063080;28;20050;-75
2021/05/22 12:01:42;;;;;;;2.40;0.57;;;18.50;99.90;;;;;;21063296;28;20032;-75
2021/05/22 12:11:59;;;;;;;1.55;0.60;;;17.90;99.90;;;;;;21047741;28;20127;-75
2021/05/22 12:22:00;;;;;;;0.73;0.47;;;18.80;99.90;;;;;;21044797;28;20066;-77
2021/05/22 12:32:04;;;;;;;1.00;0.40;;;18.80;99.90;;;;;;20994911;28;20051;-75
2021/05/22 12:42:17;;;;;;;2.88;0.63;;;19.20;99.90;;;;;;20979654;28;20037;-76
2021/05/22 12:52:18;;;;;;;2.03;0.50;;;18.80;99.90;;;;;;21036423;28;20032;-77
2021/05/22 13:02:42;;;;;;;2.97;0.50;;;19.60;99.90;;;;;;21045499;28;20039;-77
2021/05/22 13:13:01;;;;;;;3.25;0.55;;;18.90;99.90;;;;;;21119859;28;20231;-76
2021/05/22 13:23:09;;;;;;;3.42;0.50;;;19.00;99.90;;;;;;21066715;28;20451;-76
2021/05/22 13:33:11;;;;;;;2.17;0.47;;;19.60;98.30;;;;;;20980041;28;20505;-76
2021/05/22 13:43:12;;;;;;;3.25;0.65;;;18.70;99.90;;;;;;20964932;28;20063;-76
2021/05/22 13:53:13;;;;;;;4.67;0.60;;;17.90;99.90;;;;;;21012131;28;20036;-76
2021/05/22 14:03:14;;;;;;;1.63;0.73;;;17.80;99.90;;;;;;21049667;28;20036;-76
2021/05/22 14:13:14;;;;;;;3.13;0.57;;;18.80;99.90;;;;;;21049714;28;20064;-76
2021/05/22 14:23:15;;;;;;;0.83;0.30;;;19.20;99.90;;;;;;21047600;28;20387;-76
2021/05/22 14:33:16;;;;;;;2.50;0.50;;;19.10;99.90;;;;;;21050274;28;20117;-76
2021/05/22 14:43:17;;;;;;;4.20;0.50;;;19.60;99.90;;;;;;21068079;28;20069;-76
2021/05/22 14:53:18;;;;;;;5.10;0.63;;;18.80;99.90;;;;;;21061736;28;20069;-75
2021/05/22 15:03:19;;;;;;;1.17;0.60;;;18.70;99.90;;;;;;21135884;28;20031;-75
2021/05/22 15:13:20;;;;;;;5.47;0.40;;;19.50;99.90;;;;;;21124867;28;20036;-74
2021/05/22 15:23:21;;;;;;;2.63;0.40;;;18.60;99.90;;;;;;21014490;28;20190;-75
2021/05/22 15:33:22;;;;;;;1.63;0.50;;;19.00;99.90;;;;;;21020389;28;20024;-75
2021/05/22 15:43:23;;;;;;;2.77;0.70;;;18.50;99.90;;;;;;21061383;28;20189;-75
2021/05/22 16:13:56;;;;;;;2.80;0.63;;;17.90;99.90;;;;;;21144443;28;20028;-74
2021/05/22 16:23:57;;;;;;;0.73;0.50;;;18.00;99.90;;;;;;21141015;28;20024;-74
2021/05/22 16:33:57;;;;;;;3.20;0.70;;;18.10;99.90;;;;;;21071158;28;20036;-75
2021/05/22 16:43:58;;;;;;;3.40;0.47;;;17.90;99.90;;;;;;20982556;28;20066;-75
2021/05/22 16:53:59;;;;;;;1.10;0.50;;;18.00;99.90;;;;;;20973442;28;20388;-74
2021/05/22 17:04:00;;;;;;;2.00;0.37;;;17.90;99.90;;;;;;21080795;28;20512;-74
2021/05/22 17:14:01;;;;;;;3.77;0.77;;;18.10;99.90;;;;;;21050944;28;20036;-74
2021/05/22 17:24:03;;;;;;;2.47;0.80;;;17.80;99.90;;;;;;21000033;28;20441;-76
2021/05/22 17:34:04;;;;;;;5.50;0.70;;;17.30;99.90;;;;;;20996942;28;20044;-76
2021/05/22 17:44:06;;;;;;;4.30;0.77;;;17.30;99.90;;;;;;20972162;28;20032;-76
2021/05/22 17:54:07;;;;;;;1.52;0.50;;;16.50;99.90;;;;;;20969192;28;20033;-76
2021/05/22 18:04:08;;;;;;;3.40;1.05;;;16.10;99.90;;;;;;21009296;28;20550;-76
2021/05/22 18:14:09;;;;;;;4.10;1.48;;;15.30;99.90;;;;;;21021801;28;20025;-75
2021/05/22 18:24:10;;;;;;;1.10;0.52;;;15.10;99.90;;;;;;21004993;28;20032;-75
2021/05/22 18:34:11;;;;;;;2.63;0.85;;;14.50;99.90;;;;;;20997563;28;20104;-77
2021/05/22 18:44:12;;;;;;;3.88;1.02;;;14.10;99.90;;;;;;21063670;28;20036;-76
2021/05/22 18:54:13;;;;;;;5.80;1.27;;;13.10;99.90;;;;;;20981300;28;20120;-76
2021/05/22 19:04:14;;;;;;;2.75;1.27;;;12.50;99.90;;;;;;21011593;28;20111;-75
2021/05/22 19:14:15;;;;;;;5.27;1.00;;;11.40;99.90;;;;;;20978794;28;20032;-76
2021/05/22 19:24:17;;;;;;;6.70;1.60;;;11.80;99.90;;;;;;20977992;28;20032;-75
2021/05/22 19:34:18;;;;;;;;;;;11.70;99.90;;;;;;20979201;28;20033;-75
2021/05/22 19:44:19;;;;;;;9.27;4.55;;;11.50;99.90;;;;;;20988748;28;19912;-75
2021/05/22 19:54:21;;;;;;;8.30;1.80;;;11.40;99.90;;;;;;21016015;28;20034;-76
2021/05/22 20:04:22;;;;;;;2.13;0.95;;;11.20;99.90;;;;;;21051286;28;20483;-76
2021/05/22 20:14:23;;;;;;;4.73;0.73;;;11.20;99.90;;;;;;21036129;28;20028;-77
2021/05/22 20:24:24;;;;;;;4.93;0.83;;;11.20;99.90;;;;;;21072072;28;20083;-82
2021/05/22 20:34:26;;;;;;;2.20;0.70;;;11.20;99.90;;;;;;21027508;28;20043;-78
2021/05/22 20:44:27;;;;;;;2.17;0.70;;;11.20;99.90;;;;;;20978246;28;20560;-76
2021/05/22 20:54:28;;;;;;;3.47;1.73;;;11.10;99.90;;;;;;20995315;28;20028;-79
2021/05/22 21:04:29;;;;;;;3.03;1.10;;;11.10;99.90;;;;;;21103756;28;20036;-79
2021/05/22 21:14:30;;;;;;;5.60;1.00;;;11.10;99.90;;;;;;20999141;28;20075;-78
2021/05/22 21:24:31;;;;;;;1.40;0.80;;;11.10;99.90;;;;;;21018614;28;20539;-79
2021/05/22 21:34:32;;;;;;;3.10;0.70;;;11.10;99.90;;;;;;21037367;28;20545;-81
2021/05/22 21:44:33;;;;;;;4.13;0.70;;;11.00;99.90;;;;;;21095853;28;20399;-79
2021/05/22 21:54:35;;;;;;;1.50;0.87;;;10.80;99.90;;;;;;21092926;28;20406;-77
2021/05/22 22:04:36;;;;;;;1.50;0.88;;;10.70;99.90;;;;;;21103792;28;20039;-77
2021/05/22 22:14:37;;;;;;;3.27;0.70;;;10.50;99.90;;;;;;21072197;28;20599;-76
2021/05/22 22:24:37;;;;;;;3.73;0.73;;;10.40;99.90;;;;;;21088662;28;20036;-78
2021/05/22 22:34:42;;;;;;;4.63;1.00;;;10.20;99.90;;;;;;21035437;28;20025;-77
2021/05/22 22:44:43;;;;;;;4.82;1.05;;;10.20;99.90;;;;;;21003543;28;20780;-77
2021/05/22 22:54:44;;;;;;;3.07;1.20;;;9.90;99.90;;;;;;20994634;28;20086;-79
2021/05/22 23:04:45;;;;;;;3.17;1.10;;;9.80;99.90;;;;;;21032176;28;20083;-79
2021/05/22 23:14:46;;;;;;;3.00;1.57;;;9.70;99.90;;;;;;21005380;28;20040;-79
2021/05/22 23:24:47;;;;;;;4.23;1.30;;;9.60;99.90;;;;;;21002311;28;20390;-81
2021/05/22 23:34:47;;;;;;;2.70;1.07;;;9.50;99.90;;;;;;21077157;28;20061;-78
2021/05/22 23:44:49;;;;;;;3.57;0.73;;;9.30;99.90;;;;;;21015899;28;20033;-80
2021/05/22 23:54:50;;;;;;;1.07;0.80;;;9.20;99.90;;;;;;21024373;28;20029;-79
